sim
Sign-in with your pilot id or email,
or register
Callsign
Passwort

Schedule Details

Flight Number: DLH2119
Departure: Bremen Airport (EDDW) at 05:00
Arrival: Munich Airport (EDDM) at 06:10
Route: Lufthansa Passenger Schedule. Enter filed route here before submitting Pirep.

Weather Information
Getting current METAR information for EDDW 241650Z 18006KT CAVOK 16/08 Q1001 NOSIG
Getting current METAR information for EDDM 241650Z 08006KT CAVOK 18/14 Q1006 NOSIG

Schedule Frequency

Route Map